createdAt,value
2018-05-08T00:54:38.592Z,5.03
2018-05-08T00:57:06.958Z,5.80
2018-05-08T00:59:35.232Z,5.97
2018-05-08T01:02:03.690Z,5.97
2018-05-08T01:04:31.953Z,5.10
2018-05-08T01:07:00.232Z,5.33
2018-05-08T01:09:28.535Z,5.03
2018-05-08T01:11:56.815Z,5.90
2018-05-08T01:14:25.082Z,5.80
2018-05-08T01:16:53.361Z,6.17
2018-05-08T01:19:21.602Z,5.43
2018-05-08T01:21:50.041Z,5.67
2018-05-08T01:24:24.846Z,5.10
2018-05-08T01:26:53.149Z,5.40
2018-05-08T01:29:21.387Z,5.57
2018-05-08T01:31:49.711Z,5.67
2018-05-08T01:34:17.931Z,4.90
2018-05-08T01:36:46.434Z,6.47
2018-05-08T01:39:14.701Z,5.67
2018-05-08T01:41:43.024Z,5.43
2018-05-08T01:44:11.258Z,5.47
2018-05-08T01:46:39.569Z,5.50
2018-05-08T01:49:07.826Z,5.90
2018-05-08T01:51:36.122Z,5.30
2018-05-08T01:54:04.430Z,4.93
2018-05-08T01:56:32.779Z,5.30
2018-05-08T01:59:01.091Z,6.07
2018-05-08T02:01:29.439Z,5.53
2018-05-08T02:03:57.791Z,5.37
2018-05-08T02:06:26.388Z,6.47
2018-05-08T02:08:54.644Z,6.30
2018-05-08T02:11:22.972Z,5.93
2018-05-08T02:13:51.408Z,5.80
2018-05-08T02:16:19.702Z,5.37
2018-05-08T02:18:47.947Z,5.37
2018-05-08T02:21:16.458Z,5.87
2018-05-08T02:23:44.726Z,5.93
2018-05-08T02:26:13.033Z,5.70
2018-05-08T02:28:41.447Z,6.83
2018-05-08T02:31:09.974Z,6.10
2018-05-08T02:33:38.306Z,5.53
2018-05-08T02:36:06.897Z,5.40
2018-05-08T02:38:35.159Z,5.50
2018-05-08T02:41:03.466Z,5.53
2018-05-08T02:43:31.738Z,5.87
2018-05-08T02:46:00.058Z,6.03
2018-05-08T02:48:28.343Z,6.30
2018-05-08T02:50:56.759Z,5.50
2018-05-08T02:53:25.020Z,5.77
2018-05-08T02:55:53.515Z,6.30
2018-05-08T02:58:21.775Z,5.97
2018-05-08T03:00:50.047Z,5.73
2018-05-08T03:03:18.322Z,6.70
2018-05-08T03:05:46.598Z,5.60
2018-05-08T03:08:14.844Z,5.80
2018-05-08T03:10:43.120Z,6.70
2018-05-08T03:13:11.388Z,5.93
2018-05-08T03:15:39.718Z,6.00
2018-05-08T03:18:08.005Z,6.63
2018-05-08T03:20:36.571Z,6.50
2018-05-08T03:23:04.832Z,6.50
2018-05-08T03:25:33.122Z,6.67
2018-05-08T03:28:01.406Z,5.93
2018-05-08T03:30:29.686Z,6.90
2018-05-08T03:32:58.098Z,7.17
2018-05-08T03:35:26.551Z,6.27
2018-05-08T03:37:54.794Z,6.57
2018-05-08T03:40:23.069Z,6.70
2018-05-08T03:42:51.299Z,6.80
2018-05-08T03:45:19.661Z,7.43
2018-05-08T03:47:47.981Z,6.90
2018-05-08T03:50:15.900Z,7.07
2018-05-08T03:52:44.237Z,6.20
2018-05-08T03:55:12.556Z,6.53
2018-05-08T03:57:40.919Z,7.10
2018-05-08T04:04:19.704Z,6.80
2018-05-08T04:06:57.001Z,6.50
2018-05-08T04:09:25.258Z,6.67
2018-05-08T04:11:53.560Z,6.40
2018-05-08T04:14:21.863Z,6.60
2018-05-08T04:16:50.166Z,7.20
2018-05-08T04:19:25.126Z,6.80
2018-05-08T04:21:53.523Z,7.37
2018-05-08T04:24:21.871Z,6.80
2018-05-08T04:26:50.197Z,6.03
2018-05-08T04:29:18.463Z,6.13
2018-05-08T04:31:46.767Z,7.27
2018-05-08T04:34:15.023Z,6.57
2018-05-08T04:36:45.559Z,7.50
2018-05-08T04:39:14.682Z,6.67
2018-05-08T04:41:43.028Z,7.43
2018-05-08T04:44:11.315Z,6.60
2018-05-08T04:46:39.616Z,6.90
2018-05-08T04:49:07.887Z,7.30
2018-05-08T04:51:36.277Z,6.80
2018-05-08T04:54:04.784Z,7.03
2018-05-08T04:56:33.115Z,7.40
2018-05-08T04:59:01.375Z,7.27
2018-05-08T05:01:29.794Z,7.00
2018-05-08T05:03:58.074Z,6.80
2018-05-08T05:06:27.639Z,7.40
2018-05-08T05:08:56.091Z,7.90
2018-05-08T05:11:24.393Z,7.57
2018-05-08T05:13:52.622Z,7.23
2018-05-08T05:16:20.936Z,7.20
2018-05-08T05:18:49.181Z,6.87
2018-05-08T05:21:17.468Z,7.10
2018-05-08T05:23:45.715Z,7.10
2018-05-08T05:26:14.037Z,7.33
2018-05-08T05:28:42.314Z,7.67
2018-05-08T05:31:10.798Z,7.93
2018-05-08T05:33:39.205Z,7.30
2018-05-08T05:36:07.479Z,7.03
2018-05-08T05:38:35.739Z,7.60
2018-05-08T05:41:04.052Z,7.10
2018-05-08T05:43:32.355Z,7.57
2018-05-08T05:46:00.760Z,7.10
2018-05-08T05:48:29.012Z,8.17
2018-05-08T05:50:57.310Z,7.53
2018-05-08T05:53:25.622Z,7.07
2018-05-08T05:55:53.938Z,8.30
2018-05-08T05:58:22.207Z,7.87
2018-05-08T06:00:50.675Z,6.60
2018-05-08T06:03:18.919Z,8.37
2018-05-08T06:05:47.211Z,7.47
2018-05-08T06:08:15.680Z,7.63
2018-05-08T06:10:43.999Z,7.40
2018-05-08T06:13:12.312Z,7.33
2018-05-08T06:15:40.743Z,7.40
2018-05-08T06:18:09.022Z,6.87
2018-05-08T06:20:37.778Z,7.03
2018-05-08T06:23:06.927Z,6.83
2018-05-08T06:25:35.503Z,7.17
2018-05-08T06:28:03.930Z,5.97
2018-05-08T06:30:32.282Z,7.40
2018-05-08T06:33:01.532Z,7.10
2018-05-08T06:35:29.822Z,6.50
2018-05-08T06:37:58.160Z,6.60
2018-05-08T06:40:26.521Z,6.73
2018-05-08T06:42:55.021Z,6.60
2018-05-08T06:45:23.581Z,6.53
2018-05-08T06:47:51.944Z,6.90
2018-05-08T06:50:20.287Z,6.40
2018-05-08T06:52:48.580Z,6.53
2018-05-08T06:55:16.882Z,6.20
2018-05-08T06:57:45.155Z,5.77
2018-05-08T07:00:13.495Z,6.30
2018-05-08T07:02:43.171Z,5.37
2018-05-08T07:05:11.480Z,6.40
2018-05-08T07:07:39.830Z,6.00
2018-05-08T07:10:08.133Z,5.80
2018-05-08T07:12:36.404Z,5.70
2018-05-08T07:15:05.453Z,6.17
2018-05-08T07:17:34.167Z,6.40
2018-05-08T07:20:02.455Z,5.60
2018-05-08T07:22:30.786Z,5.87
2018-05-08T07:24:59.124Z,6.30
2018-05-08T07:27:27.503Z,4.80
2018-05-08T07:29:55.882Z,6.50
2018-05-08T07:32:24.156Z,5.40
2018-05-08T07:34:52.559Z,6.00
2018-05-08T07:37:21.128Z,5.50
2018-05-08T07:39:49.632Z,4.80
2018-05-08T07:42:17.961Z,5.43
2018-05-08T07:44:46.260Z,4.73
2018-05-08T07:47:14.570Z,4.80
2018-05-08T07:49:42.903Z,4.70
2018-05-08T07:52:11.207Z,4.37
2018-05-08T07:54:39.515Z,4.43
2018-05-08T07:57:07.815Z,5.37
2018-05-08T07:59:36.075Z,4.60
2018-05-08T08:02:04.399Z,4.20
2018-05-08T08:04:32.762Z,4.40
2018-05-08T08:07:01.069Z,4.33
2018-05-08T08:09:29.329Z,3.83
2018-05-08T08:11:57.642Z,4.47
2018-05-08T08:14:25.887Z,4.03
2018-05-08T08:16:54.250Z,3.53
2018-05-08T08:19:22.517Z,3.83
2018-05-08T08:21:52.195Z,3.63
2018-05-08T08:24:21.091Z,3.97
2018-05-08T08:26:49.418Z,3.70
2018-05-08T08:29:17.693Z,3.07
2018-05-08T08:31:46.019Z,2.93
2018-05-08T08:34:14.275Z,2.40
2018-05-08T08:36:42.940Z,2.97
2018-05-08T08:39:11.190Z,2.70
2018-05-08T08:41:39.523Z,2.83
2018-05-08T08:44:07.904Z,3.00
2018-05-08T08:46:36.259Z,2.60
2018-05-08T08:49:04.527Z,2.73
2018-05-08T08:51:33.197Z,2.73
2018-05-08T08:54:01.469Z,2.93
2018-05-08T08:56:29.763Z,2.37
2018-05-08T08:58:58.031Z,2.50
2018-05-08T09:01:26.507Z,2.73
2018-05-08T09:03:54.866Z,2.07
2018-05-08T09:06:23.271Z,2.60
2018-05-08T09:08:51.547Z,2.80
2018-05-08T09:11:19.883Z,2.77
2018-05-08T09:13:48.150Z,2.70
2018-05-08T09:16:16.785Z,2.60
2018-05-08T09:18:45.096Z,1.80
2018-05-08T09:21:13.451Z,2.10
2018-05-08T09:23:41.863Z,3.13
2018-05-08T09:26:10.191Z,2.73
2018-05-08T09:28:38.596Z,3.20
2018-05-08T09:31:07.144Z,2.57
2018-05-08T09:33:35.410Z,2.40
2018-05-08T09:36:04.721Z,2.40
2018-05-08T09:38:33.483Z,2.50
2018-05-08T09:41:04.821Z,2.50
2018-05-08T09:43:33.120Z,2.10
2018-05-08T09:46:01.670Z,2.57
2018-05-08T09:48:30.024Z,2.33
2018-05-08T09:50:58.345Z,2.50
2018-05-08T09:53:26.618Z,2.47
2018-05-08T09:55:54.922Z,2.30
2018-05-08T09:58:23.357Z,2.90
2018-05-08T10:00:51.870Z,2.30
2018-05-08T10:03:20.185Z,2.80
2018-05-08T10:05:48.486Z,1.90
2018-05-08T10:08:16.750Z,2.47
2018-05-08T10:10:45.244Z,2.50
2018-05-08T10:13:13.684Z,2.30
2018-05-08T10:15:42.235Z,2.10
2018-05-08T10:18:12.978Z,1.93
2018-05-08T10:20:42.247Z,2.63
2018-05-08T10:23:10.487Z,2.00
2018-05-08T10:25:39.411Z,2.10
2018-05-08T10:28:07.713Z,2.10
2018-05-08T10:30:36.039Z,1.90
2018-05-08T10:33:04.369Z,2.13
2018-05-08T10:35:32.639Z,2.33
2018-05-08T10:38:00.916Z,2.00
2018-05-08T10:40:29.239Z,2.40
2018-05-08T10:42:57.506Z,2.37
2018-05-08T10:45:26.734Z,2.17
2018-05-08T10:47:55.183Z,2.17
2018-05-08T10:51:22.362Z,2.07
2018-05-08T10:53:50.739Z,1.90
2018-05-08T10:56:27.094Z,2.50
2018-05-08T10:59:03.235Z,2.23
2018-05-08T11:01:46.394Z,2.50
2018-05-08T11:04:14.952Z,1.90
2018-05-08T11:06:43.415Z,2.10
2018-05-08T11:09:12.043Z,2.27
2018-05-08T11:11:40.874Z,2.00
2018-05-08T11:14:09.153Z,1.60
2018-05-08T11:16:37.434Z,1.87
2018-05-08T11:19:08.990Z,1.70
2018-05-08T11:21:38.767Z,1.80
2018-05-08T11:24:08.267Z,1.80
2018-05-08T11:26:37.123Z,1.80
2018-05-08T11:29:06.183Z,1.80
2018-05-08T11:31:34.686Z,1.80
2018-05-08T11:34:02.945Z,1.70
2018-05-08T11:36:31.578Z,1.67
2018-05-08T11:38:59.890Z,1.43
2018-05-08T11:41:28.243Z,1.23
2018-05-08T11:43:56.527Z,1.43
2018-05-08T11:46:24.838Z,1.50
2018-05-08T11:48:53.116Z,1.50
2018-05-08T11:51:21.444Z,1.10
2018-05-08T11:53:50.100Z,1.60
2018-05-08T11:56:18.559Z,1.57
2018-05-08T11:58:46.860Z,2.00
2018-05-08T12:01:15.208Z,1.77
2018-05-08T12:03:43.484Z,1.40
2018-05-08T12:06:11.927Z,1.60
2018-05-08T12:08:40.278Z,1.97
2018-05-08T12:11:08.624Z,1.70
2018-05-08T12:13:37.102Z,1.37
2018-05-08T12:16:05.414Z,1.37
2018-05-08T12:18:33.750Z,2.40
2018-05-08T12:21:02.058Z,1.60
2018-05-08T12:23:30.418Z,1.40
2018-05-08T12:25:58.738Z,2.10
2018-05-08T12:28:27.031Z,1.23
2018-05-08T12:30:56.420Z,1.60
2018-05-08T12:33:25.208Z,1.57
2018-05-08T12:35:53.567Z,1.90
2018-05-08T12:38:21.912Z,1.77
2018-05-08T12:40:50.731Z,1.30
2018-05-08T12:43:20.682Z,1.60
2018-05-08T12:45:50.915Z,1.50
2018-05-08T12:48:19.702Z,1.43
2018-05-08T12:50:49.099Z,1.40
2018-05-08T12:53:18.790Z,1.57
2018-05-08T12:55:50.357Z,1.30
2018-05-08T12:58:20.619Z,1.70
2018-05-08T13:00:48.949Z,1.67
2018-05-08T13:03:18.552Z,1.50
2018-05-08T13:05:46.872Z,2.37
2018-05-08T13:08:15.259Z,1.50
2018-05-08T13:10:43.578Z,1.63
2018-05-08T13:13:11.846Z,1.67
2018-05-08T13:15:40.127Z,1.40
2018-05-08T13:18:08.431Z,2.23
2018-05-08T13:20:38.208Z,1.40
2018-05-08T13:23:06.863Z,1.30
2018-05-08T13:25:35.291Z,1.30
2018-05-08T13:28:03.582Z,1.43
2018-05-08T13:30:31.970Z,1.10
2018-05-08T13:33:00.262Z,1.60
2018-05-08T13:35:28.581Z,1.67
2018-05-08T13:37:57.321Z,1.50
2018-05-08T13:40:25.654Z,1.40
2018-05-08T13:42:55.135Z,1.20
2018-05-08T13:45:24.470Z,1.40
2018-05-08T13:47:52.816Z,1.10
2018-05-08T13:50:21.232Z,1.20
2018-05-08T13:52:49.536Z,1.10
2018-05-08T13:55:17.872Z,1.20
2018-05-08T13:57:46.264Z,1.20
2018-05-08T14:00:14.595Z,1.10
2018-05-08T14:02:42.920Z,1.10
2018-05-08T14:05:11.463Z,1.30
2018-05-08T14:07:39.770Z,1.00
2018-05-08T14:10:08.134Z,1.30
2018-05-08T14:12:36.612Z,1.40
2018-05-08T14:15:04.987Z,1.60
2018-05-08T14:17:33.512Z,1.10
2018-05-08T14:20:02.142Z,1.23
2018-05-08T14:22:30.507Z,1.20
2018-05-08T14:24:58.968Z,1.13
2018-05-08T14:27:27.345Z,1.80
2018-05-08T14:29:55.934Z,1.30
2018-05-08T14:32:24.393Z,1.00
2018-05-08T14:34:52.731Z,1.20
2018-05-08T14:37:21.704Z,1.37
2018-05-08T14:39:50.080Z,1.20
2018-05-08T14:42:18.378Z,1.20
2018-05-08T14:44:46.654Z,1.20
2018-05-08T14:47:15.059Z,1.13
2018-05-08T14:49:43.340Z,1.20
2018-05-08T14:52:11.654Z,1.13
2018-05-08T14:54:39.959Z,1.53
2018-05-08T14:57:08.449Z,1.17
2018-05-08T14:59:38.188Z,1.40
2018-05-08T15:02:10.433Z,1.30
2018-05-08T15:04:39.350Z,1.53
2018-05-08T15:07:07.897Z,1.57
2018-05-08T15:09:36.685Z,1.80
2018-05-08T15:12:05.419Z,1.50
2018-05-08T15:14:34.458Z,1.40
2018-05-08T15:17:02.870Z,1.20
2018-05-08T15:19:31.125Z,1.90
2018-05-08T15:21:59.605Z,1.83
2018-05-08T15:24:29.277Z,2.13
2018-05-08T15:26:58.199Z,1.83
2018-05-08T15:29:26.572Z,1.77
2018-05-08T15:31:54.861Z,1.93
2018-05-08T15:34:23.155Z,2.00
2018-05-08T15:36:51.456Z,1.87
2018-05-08T15:39:19.748Z,1.87
2018-05-08T15:41:48.076Z,2.80
2018-05-08T15:44:16.403Z,2.77
2018-05-08T15:46:44.749Z,1.83
2018-05-08T15:49:13.038Z,2.00
2018-05-08T15:51:41.331Z,2.30
2018-05-08T15:54:09.611Z,2.10
2018-05-08T15:56:39.203Z,2.00
2018-05-08T15:59:07.875Z,1.90
2018-05-08T16:01:36.359Z,2.10
2018-05-08T16:04:04.794Z,1.80
2018-05-08T16:06:33.079Z,2.23
2018-05-08T16:09:01.348Z,1.93
2018-05-08T16:11:30.618Z,1.90
2018-05-08T16:14:01.871Z,2.43
2018-05-08T16:16:30.243Z,1.83
2018-05-08T16:18:58.498Z,2.10
2018-05-08T16:21:26.841Z,2.13
2018-05-08T16:23:55.107Z,2.10
2018-05-08T16:26:23.421Z,1.87
2018-05-08T16:28:53.129Z,2.10
2018-05-08T16:31:21.529Z,2.83
2018-05-08T16:33:50.026Z,2.20
2018-05-08T16:36:18.331Z,1.90
2018-05-08T16:38:46.579Z,2.00
2018-05-08T16:41:14.887Z,2.30
2018-05-08T16:43:43.163Z,2.57
2018-05-08T16:46:11.509Z,2.30
2018-05-08T16:48:39.828Z,2.10
2018-05-08T16:51:08.127Z,2.23
2018-05-08T16:53:36.393Z,3.00
2018-05-08T16:56:04.690Z,2.27
2018-05-08T16:58:32.957Z,2.77
2018-05-08T17:01:01.263Z,2.53
2018-05-08T17:03:29.556Z,2.73
2018-05-08T17:05:57.841Z,2.20
2018-05-08T17:08:26.166Z,2.40
2018-05-08T17:10:54.475Z,6.33
2018-05-08T17:13:22.731Z,2.57
2018-05-08T17:15:51.064Z,7.13
2018-05-08T17:18:19.340Z,3.07
2018-05-08T17:20:47.631Z,2.90
2018-05-08T17:23:15.944Z,2.70
2018-05-08T17:25:44.480Z,2.53
2018-05-08T17:28:12.712Z,2.93
2018-05-08T17:30:41.046Z,2.83
2018-05-08T17:33:09.303Z,2.83
2018-05-08T17:35:37.577Z,2.70
2018-05-08T17:38:06.847Z,2.90
2018-05-08T17:40:35.288Z,2.23
2018-05-08T17:43:03.831Z,3.20
2018-05-08T17:45:32.113Z,2.50
2018-05-08T17:48:00.378Z,2.40
2018-05-08T17:50:28.724Z,2.63
2018-05-08T17:52:57.119Z,3.07
2018-05-08T17:55:25.415Z,2.60
2018-05-08T17:57:53.782Z,2.93
2018-05-08T18:00:23.964Z,2.50
2018-05-08T18:02:52.348Z,2.70
2018-05-08T18:05:20.870Z,3.43
2018-05-08T18:07:49.121Z,3.70
2018-05-08T18:10:17.567Z,3.30
2018-05-08T18:12:45.849Z,2.83
2018-05-08T18:15:14.171Z,3.63
2018-05-08T18:17:42.504Z,3.17
2018-05-08T18:20:10.763Z,2.90
2018-05-08T18:22:39.209Z,3.10
2018-05-08T18:25:07.506Z,4.10
2018-05-08T18:27:35.747Z,4.23
2018-05-08T18:30:04.040Z,3.27
2018-05-08T18:32:32.282Z,2.80
2018-05-08T18:35:00.530Z,3.10
2018-05-08T18:37:28.924Z,4.00
2018-05-08T18:39:57.200Z,6.43
2018-05-08T18:42:25.674Z,3.17
2018-05-08T18:44:54.011Z,2.93
2018-05-08T18:47:22.361Z,3.20
2018-05-08T18:49:50.635Z,3.30
2018-05-08T18:52:18.943Z,3.53
2018-05-08T18:54:47.287Z,2.97
2018-05-08T18:57:15.619Z,3.70
2018-05-08T18:59:43.887Z,4.10
2018-05-08T19:02:12.162Z,4.57
2018-05-08T19:04:40.757Z,3.73
2018-05-08T19:07:09.236Z,3.90
2018-05-08T19:09:37.506Z,3.70
2018-05-08T19:12:06.163Z,3.53
2018-05-08T19:14:34.525Z,3.30
2018-05-08T19:17:02.795Z,3.37
2018-05-08T19:20:33.728Z,2.93
2018-05-08T19:23:02.349Z,4.23
2018-05-08T19:25:30.650Z,3.87
2018-05-08T19:28:03.099Z,4.13
2018-05-08T19:30:31.741Z,3.10
2018-05-08T19:32:59.991Z,3.97
2018-05-08T19:35:32.507Z,4.23
2018-05-08T19:38:05.483Z,3.93
2018-05-08T19:40:33.803Z,4.10
2018-05-08T19:43:02.071Z,3.93
2018-05-08T19:45:30.421Z,4.23
2018-05-08T19:47:58.723Z,4.60
2018-05-08T19:50:27.035Z,3.90
2018-05-08T19:52:55.396Z,4.67
2018-05-08T19:55:23.730Z,5.83
2018-05-08T19:57:52.086Z,5.20
2018-05-08T20:00:20.436Z,4.63
2018-05-08T20:02:48.856Z,5.93
2018-05-08T20:05:17.220Z,4.77
2018-05-08T20:07:45.494Z,4.70
2018-05-08T20:10:14.035Z,5.00
2018-05-08T20:12:42.575Z,4.93
2018-05-08T20:15:11.054Z,4.53
2018-05-08T20:17:40.163Z,5.20
2018-05-08T20:20:08.495Z,5.10
2018-05-08T20:22:36.781Z,4.60
2018-05-08T20:25:05.095Z,4.57
2018-05-08T20:27:33.510Z,5.50
2018-05-08T20:30:01.778Z,4.53
2018-05-08T20:32:30.095Z,4.00
2018-05-08T20:34:59.264Z,4.17
2018-05-08T20:37:28.692Z,4.20
2018-05-08T20:39:56.989Z,4.87
2018-05-08T20:42:25.269Z,4.00
2018-05-08T20:44:53.528Z,3.97
2018-05-08T20:47:21.852Z,4.20
2018-05-08T20:49:50.248Z,4.40
2018-05-08T20:52:18.562Z,4.00
2018-05-08T20:54:46.874Z,3.90
2018-05-08T20:57:15.221Z,3.67
2018-05-08T20:59:43.550Z,3.77
2018-05-08T21:02:11.910Z,4.27
2018-05-08T21:04:40.798Z,4.13
2018-05-08T21:07:10.812Z,4.30
2018-05-08T21:09:39.413Z,4.70
2018-05-08T21:12:07.779Z,3.83
2018-05-08T21:14:36.056Z,3.70
2018-05-08T21:17:04.393Z,4.07
2018-05-08T21:19:32.769Z,4.00
2018-05-08T21:22:01.064Z,4.53
2018-05-08T21:24:29.348Z,4.00
2018-05-08T21:26:57.642Z,4.60
2018-05-08T21:29:30.098Z,3.97
2018-05-08T21:31:58.443Z,4.90
2018-05-08T21:34:26.757Z,3.97
2018-05-08T21:36:55.147Z,4.50
2018-05-08T21:39:23.414Z,3.77
2018-05-08T21:41:51.737Z,3.80
2018-05-08T21:44:20.052Z,4.23
2018-05-08T21:46:48.398Z,4.07
2018-05-08T21:49:16.658Z,4.07
2018-05-08T21:51:44.996Z,4.20
2018-05-08T21:54:13.246Z,4.17
2018-05-08T21:56:41.702Z,4.30
2018-05-08T21:59:10.143Z,3.93
2018-05-08T22:01:38.451Z,4.57
2018-05-08T22:04:06.721Z,4.30
2018-05-08T22:06:35.054Z,3.50
2018-05-08T22:09:03.324Z,4.20
2018-05-08T22:11:31.614Z,4.07
2018-05-08T22:13:59.860Z,3.77
2018-05-08T22:16:28.204Z,3.43
2018-05-08T22:18:56.578Z,4.30
2018-05-08T22:21:24.915Z,4.10
2018-05-08T22:23:53.226Z,4.30
2018-05-08T22:26:21.539Z,3.30
2018-05-08T22:28:49.808Z,3.77
2018-05-08T22:31:18.194Z,3.70
2018-05-08T22:33:46.512Z,3.83
2018-05-08T22:36:14.839Z,3.97
2018-05-08T22:38:43.191Z,4.57
2018-05-08T22:41:11.495Z,4.10
2018-05-08T22:43:39.778Z,4.77
2018-05-08T22:46:08.088Z,4.90
2018-05-08T22:48:36.360Z,4.20
2018-05-08T22:51:04.659Z,3.93
2018-05-08T22:53:32.926Z,4.13
2018-05-08T22:56:01.239Z,4.43
2018-05-08T22:58:29.510Z,4.30
2018-05-08T23:00:57.910Z,4.43
2018-05-08T23:03:27.581Z,3.93
2018-05-08T23:05:56.995Z,4.70
2018-05-08T23:08:25.275Z,4.50
2018-05-08T23:10:53.628Z,4.87
2018-05-08T23:13:21.919Z,4.27
2018-05-08T23:15:50.239Z,3.93
2018-05-08T23:18:18.533Z,4.70
2018-05-08T23:20:46.840Z,4.37
2018-05-08T23:23:15.092Z,4.57
2018-05-08T23:25:44.454Z,4.03
2018-05-08T23:28:12.738Z,4.50
2018-05-08T23:30:41.119Z,4.63
2018-05-08T23:33:09.367Z,4.47
2018-05-08T23:35:37.718Z,4.20
2018-05-08T23:38:06.113Z,4.80
2018-05-08T23:40:34.436Z,4.07
2018-05-08T23:43:02.663Z,4.60
2018-05-08T23:45:30.970Z,5.10
2018-05-08T23:47:59.266Z,4.80
2018-05-08T23:50:27.702Z,4.40
2018-05-08T23:52:55.994Z,5.03
2018-05-08T23:55:24.547Z,4.53
2018-05-08T23:57:52.896Z,5.03
